sensor_id;sensor_type;location;lat;lon;timestamp;P1;durP1;ratioP1;P2;durP2;ratioP2
65759;SDS011;52496;51.082;5.066;2023-04-25T00:00:13;14.38;;;5.50;;
65759;SDS011;52496;51.082;5.066;2023-04-25T00:02:44;12.63;;;5.47;;
65759;SDS011;52496;51.082;5.066;2023-04-25T00:05:16;11.05;;;4.80;;
65759;SDS011;52496;51.082;5.066;2023-04-25T00:07:47;14.68;;;5.30;;
65759;SDS011;52496;51.082;5.066;2023-04-25T00:10:18;19.20;;;6.75;;
65759;SDS011;52496;51.082;5.066;2023-04-25T00:12:50;16.10;;;5.03;;
65759;SDS011;52496;51.082;5.066;2023-04-25T00:15:21;12.52;;;5.13;;
65759;SDS011;52496;51.082;5.066;2023-04-25T00:17:52;16.65;;;5.60;;
65759;SDS011;52496;51.082;5.066;2023-04-25T00:20:22;18.02;;;4.95;;
65759;SDS011;52496;51.082;5.066;2023-04-25T00:22:54;14.77;;;4.75;;
65759;SDS011;52496;51.082;5.066;2023-04-25T00:25:25;17.40;;;5.22;;
65759;SDS011;52496;51.082;5.066;2023-04-25T00:27:56;19.55;;;5.38;;
65759;SDS011;52496;51.082;5.066;2023-04-25T00:30:26;14.30;;;4.90;;
65759;SDS011;52496;51.082;5.066;2023-04-25T00:32:57;15.00;;;5.40;;
65759;SDS011;52496;51.082;5.066;2023-04-25T00:35:27;9.93;;;5.30;;
65759;SDS011;52496;51.082;5.066;2023-04-25T00:37:58;16.55;;;5.15;;
65759;SDS011;52496;51.082;5.066;2023-04-25T00:40:28;25.08;;;5.95;;
65759;SDS011;52496;51.082;5.066;2023-04-25T00:42:59;17.20;;;5.50;;
65759;SDS011;52496;51.082;5.066;2023-04-25T00:45:30;16.30;;;5.45;;
65759;SDS011;52496;51.082;5.066;2023-04-25T00:48:00;15.98;;;5.60;;
65759;SDS011;52496;51.082;5.066;2023-04-25T00:50:35;14.35;;;4.63;;
65759;SDS011;52496;51.082;5.066;2023-04-25T00:53:06;15.90;;;4.75;;
65759;SDS011;52496;51.082;5.066;2023-04-25T00:55:37;21.25;;;5.68;;
65759;SDS011;52496;51.082;5.066;2023-04-25T00:58:07;12.32;;;5.45;;
65759;SDS011;52496;51.082;5.066;2023-04-25T01:00:39;14.65;;;5.25;;
65759;SDS011;52496;51.082;5.066;2023-04-25T01:03:10;12.95;;;4.93;;
65759;SDS011;52496;51.082;5.066;2023-04-25T01:05:41;12.93;;;5.60;;
65759;SDS011;52496;51.082;5.066;2023-04-25T01:08:12;14.38;;;4.85;;
65759;SDS011;52496;51.082;5.066;2023-04-25T01:10:43;13.05;;;4.22;;
65759;SDS011;52496;51.082;5.066;2023-04-25T01:13:14;20.13;;;5.28;;
65759;SDS011;52496;51.082;5.066;2023-04-25T01:15:44;13.82;;;4.53;;
65759;SDS011;52496;51.082;5.066;2023-04-25T01:18:15;15.00;;;5.80;;
65759;SDS011;52496;51.082;5.066;2023-04-25T01:20:46;15.40;;;5.30;;
65759;SDS011;52496;51.082;5.066;2023-04-25T01:23:20;14.57;;;5.00;;
65759;SDS011;52496;51.082;5.066;2023-04-25T01:25:51;16.45;;;5.00;;
65759;SDS011;52496;51.082;5.066;2023-04-25T01:28:22;17.98;;;4.72;;
65759;SDS011;52496;51.082;5.066;2023-04-25T01:30:53;15.02;;;4.47;;
65759;SDS011;52496;51.082;5.066;2023-04-25T01:33:24;25.65;;;5.35;;
65759;SDS011;52496;51.082;5.066;2023-04-25T01:35:55;15.82;;;5.28;;
65759;SDS011;52496;51.082;5.066;2023-04-25T01:38:25;15.18;;;4.57;;
65759;SDS011;52496;51.082;5.066;2023-04-25T01:40:56;18.48;;;5.63;;
65759;SDS011;52496;51.082;5.066;2023-04-25T01:43:27;20.42;;;5.05;;
65759;SDS011;52496;51.082;5.066;2023-04-25T01:45:57;14.05;;;4.55;;
65759;SDS011;52496;51.082;5.066;2023-04-25T01:48:28;14.90;;;4.35;;
65759;SDS011;52496;51.082;5.066;2023-04-25T01:50:59;13.30;;;5.57;;
65759;SDS011;52496;51.082;5.066;2023-04-25T01:53:29;19.15;;;5.32;;
65759;SDS011;52496;51.082;5.066;2023-04-25T01:56:00;15.88;;;5.25;;
65759;SDS011;52496;51.082;5.066;2023-04-25T01:58:30;15.07;;;5.55;;
65759;SDS011;52496;51.082;5.066;2023-04-25T02:01:01;15.32;;;4.35;;
65759;SDS011;52496;51.082;5.066;2023-04-25T02:03:31;18.23;;;5.00;;
65759;SDS011;52496;51.082;5.066;2023-04-25T02:06:02;17.40;;;4.93;;
65759;SDS011;52496;51.082;5.066;2023-04-25T02:08:33;14.88;;;4.85;;
65759;SDS011;52496;51.082;5.066;2023-04-25T02:11:03;16.88;;;4.82;;
65759;SDS011;52496;51.082;5.066;2023-04-25T02:13:34;15.75;;;5.13;;
65759;SDS011;52496;51.082;5.066;2023-04-25T02:16:04;18.30;;;5.38;;
65759;SDS011;52496;51.082;5.066;2023-04-25T02:18:35;17.70;;;6.25;;
65759;SDS011;52496;51.082;5.066;2023-04-25T02:21:07;17.80;;;5.82;;
65759;SDS011;52496;51.082;5.066;2023-04-25T02:23:37;9.80;;;4.65;;
65759;SDS011;52496;51.082;5.066;2023-04-25T02:26:08;16.40;;;5.18;;
65759;SDS011;52496;51.082;5.066;2023-04-25T02:28:38;17.00;;;5.82;;
65759;SDS011;52496;51.082;5.066;2023-04-25T02:31:09;17.23;;;5.38;;
65759;SDS011;52496;51.082;5.066;2023-04-25T02:33:39;19.75;;;5.68;;
65759;SDS011;52496;51.082;5.066;2023-04-25T02:36:10;19.02;;;5.72;;
65759;SDS011;52496;51.082;5.066;2023-04-25T02:38:40;12.48;;;5.03;;
65759;SDS011;52496;51.082;5.066;2023-04-25T02:41:11;13.95;;;5.13;;
65759;SDS011;52496;51.082;5.066;2023-04-25T02:43:41;17.83;;;5.25;;
65759;SDS011;52496;51.082;5.066;2023-04-25T02:46:12;17.55;;;5.10;;
65759;SDS011;52496;51.082;5.066;2023-04-25T02:48:42;16.67;;;5.28;;
65759;SDS011;52496;51.082;5.066;2023-04-25T02:51:13;16.25;;;5.43;;
65759;SDS011;52496;51.082;5.066;2023-04-25T02:53:46;18.80;;;5.43;;
65759;SDS011;52496;51.082;5.066;2023-04-25T02:56:16;19.77;;;5.72;;
65759;SDS011;52496;51.082;5.066;2023-04-25T02:58:47;20.30;;;5.47;;
65759;SDS011;52496;51.082;5.066;2023-04-25T03:01:18;13.82;;;5.63;;
65759;SDS011;52496;51.082;5.066;2023-04-25T03:03:48;18.92;;;5.72;;
65759;SDS011;52496;51.082;5.066;2023-04-25T03:06:19;10.93;;;5.10;;
65759;SDS011;52496;51.082;5.066;2023-04-25T03:08:49;20.75;;;5.47;;
65759;SDS011;52496;51.082;5.066;2023-04-25T03:11:20;20.52;;;5.68;;
65759;SDS011;52496;51.082;5.066;2023-04-25T03:13:50;13.15;;;4.30;;
65759;SDS011;52496;51.082;5.066;2023-04-25T03:16:21;17.42;;;5.57;;
65759;SDS011;52496;51.082;5.066;2023-04-25T03:18:52;15.68;;;5.68;;
65759;SDS011;52496;51.082;5.066;2023-04-25T03:21:22;14.85;;;5.28;;
65759;SDS011;52496;51.082;5.066;2023-04-25T03:23:53;14.77;;;5.85;;
65759;SDS011;52496;51.082;5.066;2023-04-25T03:26:23;14.93;;;5.72;;
65759;SDS011;52496;51.082;5.066;2023-04-25T03:28:54;14.05;;;5.55;;
65759;SDS011;52496;51.082;5.066;2023-04-25T03:31:24;11.77;;;4.28;;
65759;SDS011;52496;51.082;5.066;2023-04-25T03:33:55;13.98;;;4.88;;
65759;SDS011;52496;51.082;5.066;2023-04-25T03:36:25;21.70;;;5.93;;
65759;SDS011;52496;51.082;5.066;2023-04-25T03:38:56;15.05;;;5.78;;
65759;SDS011;52496;51.082;5.066;2023-04-25T03:41:26;15.02;;;5.85;;
65759;SDS011;52496;51.082;5.066;2023-04-25T03:43:57;16.33;;;6.57;;
65759;SDS011;52496;51.082;5.066;2023-04-25T03:46:28;15.35;;;6.30;;
65759;SDS011;52496;51.082;5.066;2023-04-25T03:48:58;17.05;;;6.10;;
65759;SDS011;52496;51.082;5.066;2023-04-25T03:51:32;15.32;;;5.85;;
65759;SDS011;52496;51.082;5.066;2023-04-25T03:54:02;15.15;;;6.13;;
65759;SDS011;52496;51.082;5.066;2023-04-25T03:56:33;13.35;;;5.93;;
65759;SDS011;52496;51.082;5.066;2023-04-25T03:59:03;12.20;;;5.55;;
65759;SDS011;52496;51.082;5.066;2023-04-25T04:01:33;12.70;;;5.43;;
65759;SDS011;52496;51.082;5.066;2023-04-25T04:04:04;14.55;;;6.45;;
65759;SDS011;52496;51.082;5.066;2023-04-25T04:06:34;14.55;;;6.75;;
65759;SDS011;52496;51.082;5.066;2023-04-25T04:09:06;14.70;;;6.68;;
65759;SDS011;52496;51.082;5.066;2023-04-25T04:11:40;19.05;;;6.10;;
65759;SDS011;52496;51.082;5.066;2023-04-25T04:14:11;15.93;;;6.10;;
65759;SDS011;52496;51.082;5.066;2023-04-25T04:16:44;15.20;;;6.78;;
65759;SDS011;52496;51.082;5.066;2023-04-25T04:19:15;20.33;;;6.95;;
65759;SDS011;52496;51.082;5.066;2023-04-25T04:21:45;21.48;;;6.88;;
65759;SDS011;52496;51.082;5.066;2023-04-25T04:24:16;13.52;;;6.20;;
65759;SDS011;52496;51.082;5.066;2023-04-25T04:26:46;14.90;;;5.82;;
65759;SDS011;52496;51.082;5.066;2023-04-25T04:29:17;15.38;;;6.63;;
65759;SDS011;52496;51.082;5.066;2023-04-25T04:31:51;17.13;;;6.35;;
65759;SDS011;52496;51.082;5.066;2023-04-25T04:34:22;19.73;;;6.65;;
65759;SDS011;52496;51.082;5.066;2023-04-25T04:36:54;21.90;;;7.00;;
65759;SDS011;52496;51.082;5.066;2023-04-25T04:39:25;13.10;;;6.90;;
65759;SDS011;52496;51.082;5.066;2023-04-25T04:41:55;15.45;;;6.47;;
65759;SDS011;52496;51.082;5.066;2023-04-25T04:44:26;15.63;;;6.43;;
65759;SDS011;52496;51.082;5.066;2023-04-25T04:46:59;19.70;;;6.53;;
65759;SDS011;52496;51.082;5.066;2023-04-25T04:49:29;22.23;;;7.47;;
65759;SDS011;52496;51.082;5.066;2023-04-25T04:52:00;16.90;;;7.65;;
65759;SDS011;52496;51.082;5.066;2023-04-25T04:54:30;21.35;;;7.47;;
65759;SDS011;52496;51.082;5.066;2023-04-25T04:57:01;21.33;;;7.05;;
65759;SDS011;52496;51.082;5.066;2023-04-25T04:59:31;19.25;;;7.80;;
65759;SDS011;52496;51.082;5.066;2023-04-25T05:02:02;18.15;;;8.45;;
65759;SDS011;52496;51.082;5.066;2023-04-25T05:04:32;27.55;;;9.23;;
65759;SDS011;52496;51.082;5.066;2023-04-25T05:07:03;20.50;;;8.02;;
65759;SDS011;52496;51.082;5.066;2023-04-25T05:09:33;21.42;;;8.23;;
65759;SDS011;52496;51.082;5.066;2023-04-25T05:12:04;20.33;;;7.35;;
65759;SDS011;52496;51.082;5.066;2023-04-25T05:14:34;22.13;;;8.02;;
65759;SDS011;52496;51.082;5.066;2023-04-25T05:17:05;17.42;;;7.93;;
65759;SDS011;52496;51.082;5.066;2023-04-25T05:19:38;16.88;;;7.85;;
65759;SDS011;52496;51.082;5.066;2023-04-25T05:22:09;17.75;;;8.18;;
65759;SDS011;52496;51.082;5.066;2023-04-25T05:24:40;16.58;;;8.52;;
65759;SDS011;52496;51.082;5.066;2023-04-25T05:27:11;16.75;;;7.47;;
65759;SDS011;52496;51.082;5.066;2023-04-25T05:29:41;15.65;;;7.38;;
65759;SDS011;52496;51.082;5.066;2023-04-25T05:32:11;22.13;;;7.80;;
65759;SDS011;52496;51.082;5.066;2023-04-25T05:34:42;16.92;;;8.02;;
65759;SDS011;52496;51.082;5.066;2023-04-25T05:37:14;20.05;;;7.85;;
65759;SDS011;52496;51.082;5.066;2023-04-25T05:39:44;25.17;;;8.85;;
65759;SDS011;52496;51.082;5.066;2023-04-25T05:42:14;19.70;;;8.50;;
65759;SDS011;52496;51.082;5.066;2023-04-25T05:44:45;20.92;;;8.27;;
65759;SDS011;52496;51.082;5.066;2023-04-25T05:47:16;21.75;;;8.02;;
65759;SDS011;52496;51.082;5.066;2023-04-25T05:49:46;16.75;;;8.00;;
65759;SDS011;52496;51.082;5.066;2023-04-25T05:52:16;17.20;;;8.57;;
65759;SDS011;52496;51.082;5.066;2023-04-25T05:54:47;25.60;;;9.23;;
65759;SDS011;52496;51.082;5.066;2023-04-25T05:57:19;20.05;;;8.35;;
65759;SDS011;52496;51.082;5.066;2023-04-25T05:59:53;21.83;;;9.18;;
65759;SDS011;52496;51.082;5.066;2023-04-25T06:02:24;21.42;;;8.27;;
65759;SDS011;52496;51.082;5.066;2023-04-25T06:04:54;18.48;;;8.20;;
65759;SDS011;52496;51.082;5.066;2023-04-25T06:07:25;28.35;;;10.40;;
65759;SDS011;52496;51.082;5.066;2023-04-25T06:09:55;23.77;;;9.43;;
65759;SDS011;52496;51.082;5.066;2023-04-25T06:12:27;18.83;;;7.45;;
65759;SDS011;52496;51.082;5.066;2023-04-25T06:14:57;14.45;;;6.22;;
65759;SDS011;52496;51.082;5.066;2023-04-25T06:17:28;23.77;;;7.47;;
65759;SDS011;52496;51.082;5.066;2023-04-25T06:19:58;20.95;;;6.80;;
65759;SDS011;52496;51.082;5.066;2023-04-25T06:22:29;17.02;;;6.90;;
65759;SDS011;52496;51.082;5.066;2023-04-25T06:24:59;21.77;;;6.43;;
65759;SDS011;52496;51.082;5.066;2023-04-25T06:27:30;17.58;;;6.18;;
65759;SDS011;52496;51.082;5.066;2023-04-25T06:30:01;22.40;;;5.97;;
65759;SDS011;52496;51.082;5.066;2023-04-25T06:32:31;21.73;;;7.05;;
65759;SDS011;52496;51.082;5.066;2023-04-25T06:35:02;18.08;;;5.70;;
65759;SDS011;52496;51.082;5.066;2023-04-25T06:37:33;19.88;;;6.10;;
65759;SDS011;52496;51.082;5.066;2023-04-25T06:40:04;14.23;;;5.28;;
65759;SDS011;52496;51.082;5.066;2023-04-25T06:42:35;15.40;;;5.88;;
65759;SDS011;52496;51.082;5.066;2023-04-25T06:45:06;15.20;;;5.57;;
65759;SDS011;52496;51.082;5.066;2023-04-25T06:47:37;15.10;;;5.68;;
65759;SDS011;52496;51.082;5.066;2023-04-25T06:50:07;18.98;;;6.40;;
65759;SDS011;52496;51.082;5.066;2023-04-25T06:52:38;17.25;;;5.45;;
65759;SDS011;52496;51.082;5.066;2023-04-25T06:55:10;19.58;;;5.60;;
65759;SDS011;52496;51.082;5.066;2023-04-25T06:57:40;16.48;;;5.95;;
65759;SDS011;52496;51.082;5.066;2023-04-25T07:00:11;12.05;;;4.85;;
65759;SDS011;52496;51.082;5.066;2023-04-25T07:02:42;14.15;;;5.88;;
65759;SDS011;52496;51.082;5.066;2023-04-25T07:05:13;19.23;;;5.25;;
65759;SDS011;52496;51.082;5.066;2023-04-25T07:07:43;17.73;;;6.05;;
65759;SDS011;52496;51.082;5.066;2023-04-25T07:10:14;15.75;;;5.13;;
65759;SDS011;52496;51.082;5.066;2023-04-25T07:12:45;13.95;;;5.28;;
65759;SDS011;52496;51.082;5.066;2023-04-25T07:15:15;16.80;;;5.38;;
65759;SDS011;52496;51.082;5.066;2023-04-25T07:17:46;15.40;;;5.10;;
65759;SDS011;52496;51.082;5.066;2023-04-25T07:20:16;12.73;;;5.10;;
65759;SDS011;52496;51.082;5.066;2023-04-25T07:22:47;12.82;;;4.72;;
65759;SDS011;52496;51.082;5.066;2023-04-25T07:25:19;15.88;;;4.50;;
65759;SDS011;52496;51.082;5.066;2023-04-25T07:27:50;12.85;;;4.50;;
65759;SDS011;52496;51.082;5.066;2023-04-25T07:30:20;13.57;;;4.90;;
65759;SDS011;52496;51.082;5.066;2023-04-25T07:32:51;16.77;;;5.10;;
65759;SDS011;52496;51.082;5.066;2023-04-25T07:35:21;15.75;;;4.78;;
65759;SDS011;52496;51.082;5.066;2023-04-25T07:37:52;14.45;;;4.88;;
65759;SDS011;52496;51.082;5.066;2023-04-25T07:40:23;11.20;;;4.13;;
65759;SDS011;52496;51.082;5.066;2023-04-25T07:42:53;14.32;;;5.38;;
65759;SDS011;52496;51.082;5.066;2023-04-25T07:45:23;18.55;;;4.65;;
65759;SDS011;52496;51.082;5.066;2023-04-25T07:47:54;16.35;;;5.78;;
65759;SDS011;52496;51.082;5.066;2023-04-25T07:50:24;8.95;;;3.22;;
65759;SDS011;52496;51.082;5.066;2023-04-25T07:52:55;15.52;;;3.75;;
65759;SDS011;52496;51.082;5.066;2023-04-25T07:55:25;6.40;;;2.67;;
65759;SDS011;52496;51.082;5.066;2023-04-25T07:57:56;9.63;;;2.92;;
65759;SDS011;52496;51.082;5.066;2023-04-25T08:00:26;10.23;;;2.90;;
65759;SDS011;52496;51.082;5.066;2023-04-25T08:02:59;8.48;;;3.08;;
65759;SDS011;52496;51.082;5.066;2023-04-25T08:05:29;9.38;;;3.08;;
65759;SDS011;52496;51.082;5.066;2023-04-25T08:08:00;9.15;;;2.90;;
65759;SDS011;52496;51.082;5.066;2023-04-25T08:10:30;7.18;;;2.85;;
65759;SDS011;52496;51.082;5.066;2023-04-25T08:13:01;8.80;;;2.97;;
65759;SDS011;52496;51.082;5.066;2023-04-25T08:15:32;12.88;;;2.90;;
65759;SDS011;52496;51.082;5.066;2023-04-25T08:18:02;14.40;;;2.80;;
65759;SDS011;52496;51.082;5.066;2023-04-25T08:20:33;10.15;;;3.10;;
65759;SDS011;52496;51.082;5.066;2023-04-25T08:23:03;8.95;;;3.13;;
65759;SDS011;52496;51.082;5.066;2023-04-25T08:25:34;6.57;;;3.25;;
65759;SDS011;52496;51.082;5.066;2023-04-25T08:28:05;10.93;;;3.78;;
65759;SDS011;52496;51.082;5.066;2023-04-25T08:30:36;7.95;;;3.00;;
65759;SDS011;52496;51.082;5.066;2023-04-25T08:33:06;8.90;;;2.58;;
65759;SDS011;52496;51.082;5.066;2023-04-25T08:35:37;13.68;;;3.40;;
65759;SDS011;52496;51.082;5.066;2023-04-25T08:38:07;13.48;;;3.40;;
65759;SDS011;52496;51.082;5.066;2023-04-25T08:40:38;8.95;;;3.28;;
65759;SDS011;52496;51.082;5.066;2023-04-25T08:43:09;11.38;;;3.40;;
65759;SDS011;52496;51.082;5.066;2023-04-25T08:45:44;8.23;;;3.28;;
65759;SDS011;52496;51.082;5.066;2023-04-25T08:48:16;7.38;;;3.35;;
65759;SDS011;52496;51.082;5.066;2023-04-25T08:50:54;13.32;;;3.13;;
65759;SDS011;52496;51.082;5.066;2023-04-25T08:53:26;9.85;;;3.08;;
65759;SDS011;52496;51.082;5.066;2023-04-25T08:56:13;10.27;;;3.47;;
65759;SDS011;52496;51.082;5.066;2023-04-25T08:59:01;10.13;;;2.63;;
65759;SDS011;52496;51.082;5.066;2023-04-25T09:01:32;9.13;;;2.70;;
65759;SDS011;52496;51.082;5.066;2023-04-25T09:04:03;10.40;;;3.10;;
65759;SDS011;52496;51.082;5.066;2023-04-25T09:06:33;10.90;;;3.38;;
65759;SDS011;52496;51.082;5.066;2023-04-25T09:09:05;7.15;;;2.10;;
65759;SDS011;52496;51.082;5.066;2023-04-25T09:11:37;13.18;;;3.05;;
65759;SDS011;52496;51.082;5.066;2023-04-25T09:14:18;8.10;;;2.70;;
65759;SDS011;52496;51.082;5.066;2023-04-25T09:19:30;9.70;;;3.35;;
65759;SDS011;52496;51.082;5.066;2023-04-25T09:22:05;6.10;;;2.35;;
65759;SDS011;52496;51.082;5.066;2023-04-25T09:24:43;7.03;;;2.47;;
65759;SDS011;52496;51.082;5.066;2023-04-25T09:27:19;7.72;;;3.13;;
65759;SDS011;52496;51.082;5.066;2023-04-25T09:29:58;7.50;;;2.50;;
65759;SDS011;52496;51.082;5.066;2023-04-25T09:32:30;8.75;;;2.60;;
65759;SDS011;52496;51.082;5.066;2023-04-25T09:35:00;10.73;;;2.80;;
65759;SDS011;52496;51.082;5.066;2023-04-25T09:37:31;7.13;;;3.22;;
65759;SDS011;52496;51.082;5.066;2023-04-25T09:40:05;6.25;;;2.72;;
65759;SDS011;52496;51.082;5.066;2023-04-25T09:42:40;8.40;;;3.58;;
65759;SDS011;52496;51.082;5.066;2023-04-25T09:45:14;9.00;;;3.80;;
65759;SDS011;52496;51.082;5.066;2023-04-25T09:47:45;10.98;;;4.60;;
65759;SDS011;52496;51.082;5.066;2023-04-25T09:50:16;10.32;;;4.00;;
65759;SDS011;52496;51.082;5.066;2023-04-25T09:53:02;10.80;;;5.13;;
65759;SDS011;52496;51.082;5.066;2023-04-25T09:55:34;8.85;;;3.67;;
65759;SDS011;52496;51.082;5.066;2023-04-25T09:58:05;6.22;;;2.63;;
65759;SDS011;52496;51.082;5.066;2023-04-25T10:00:39;12.50;;;3.20;;
65759;SDS011;52496;51.082;5.066;2023-04-25T10:03:11;9.60;;;2.20;;
65759;SDS011;52496;51.082;5.066;2023-04-25T10:05:43;5.20;;;2.15;;
65759;SDS011;52496;51.082;5.066;2023-04-25T10:08:14;9.93;;;3.60;;
65759;SDS011;52496;51.082;5.066;2023-04-25T10:10:46;7.05;;;2.45;;
65759;SDS011;52496;51.082;5.066;2023-04-25T10:13:18;9.20;;;3.33;;
65759;SDS011;52496;51.082;5.066;2023-04-25T10:15:49;5.75;;;2.30;;
65759;SDS011;52496;51.082;5.066;2023-04-25T10:18:22;7.97;;;2.17;;
65759;SDS011;52496;51.082;5.066;2023-04-25T10:20:54;6.15;;;2.78;;
65759;SDS011;52496;51.082;5.066;2023-04-25T10:23:25;4.30;;;2.00;;
65759;SDS011;52496;51.082;5.066;2023-04-25T10:25:57;8.23;;;3.47;;
65759;SDS011;52496;51.082;5.066;2023-04-25T10:34:39;6.60;;;2.25;;
65759;SDS011;52496;51.082;5.066;2023-04-25T10:37:16;5.25;;;2.10;;
65759;SDS011;52496;51.082;5.066;2023-04-25T10:39:49;6.88;;;1.92;;
65759;SDS011;52496;51.082;5.066;2023-04-25T10:42:19;4.47;;;1.85;;
65759;SDS011;52496;51.082;5.066;2023-04-25T10:45:04;7.75;;;2.78;;
65759;SDS011;52496;51.082;5.066;2023-04-25T10:47:35;6.53;;;2.65;;
65759;SDS011;52496;51.082;5.066;2023-04-25T10:50:09;6.88;;;2.25;;
65759;SDS011;52496;51.082;5.066;2023-04-25T10:52:40;5.80;;;2.08;;
65759;SDS011;52496;51.082;5.066;2023-04-25T10:55:11;5.40;;;2.30;;
65759;SDS011;52496;51.082;5.066;2023-04-25T10:57:42;6.97;;;2.35;;
65759;SDS011;52496;51.082;5.066;2023-04-25T11:00:16;5.55;;;2.13;;
65759;SDS011;52496;51.082;5.066;2023-04-25T11:02:51;8.73;;;2.28;;
65759;SDS011;52496;51.082;5.066;2023-04-25T11:05:28;6.07;;;2.00;;
65759;SDS011;52496;51.082;5.066;2023-04-25T11:08:02;7.18;;;2.65;;
65759;SDS011;52496;51.082;5.066;2023-04-25T11:10:40;7.85;;;2.00;;
65759;SDS011;52496;51.082;5.066;2023-04-25T11:13:11;6.05;;;1.83;;
65759;SDS011;52496;51.082;5.066;2023-04-25T11:15:41;5.25;;;2.30;;
65759;SDS011;52496;51.082;5.066;2023-04-25T11:18:15;4.63;;;2.03;;
65759;SDS011;52496;51.082;5.066;2023-04-25T11:20:47;5.93;;;2.00;;
65759;SDS011;52496;51.082;5.066;2023-04-25T11:23:18;8.85;;;2.50;;
65759;SDS011;52496;51.082;5.066;2023-04-25T11:25:48;5.88;;;2.30;;
65759;SDS011;52496;51.082;5.066;2023-04-25T11:28:22;10.98;;;2.63;;
65759;SDS011;52496;51.082;5.066;2023-04-25T11:30:53;7.38;;;2.65;;
65759;SDS011;52496;51.082;5.066;2023-04-25T11:33:24;7.97;;;3.30;;
65759;SDS011;52496;51.082;5.066;2023-04-25T11:35:55;8.90;;;2.75;;
65759;SDS011;52496;51.082;5.066;2023-04-25T11:38:26;6.38;;;2.50;;
65759;SDS011;52496;51.082;5.066;2023-04-25T11:40:57;6.47;;;2.70;;
65759;SDS011;52496;51.082;5.066;2023-04-25T11:43:27;12.07;;;3.97;;
65759;SDS011;52496;51.082;5.066;2023-04-25T11:45:58;9.50;;;3.20;;
65759;SDS011;52496;51.082;5.066;2023-04-25T11:48:36;11.35;;;3.15;;
65759;SDS011;52496;51.082;5.066;2023-04-25T11:51:07;9.10;;;3.20;;
65759;SDS011;52496;51.082;5.066;2023-04-25T11:53:40;5.10;;;2.83;;
65759;SDS011;52496;51.082;5.066;2023-04-25T11:56:13;5.55;;;2.75;;
65759;SDS011;52496;51.082;5.066;2023-04-25T11:58:57;5.60;;;2.47;;
65759;SDS011;52496;51.082;5.066;2023-04-25T12:01:31;8.85;;;2.30;;
65759;SDS011;52496;51.082;5.066;2023-04-25T12:04:10;9.77;;;3.10;;
65759;SDS011;52496;51.082;5.066;2023-04-25T12:06:45;4.28;;;2.13;;
65759;SDS011;52496;51.082;5.066;2023-04-25T12:09:19;6.90;;;2.65;;
65759;SDS011;52496;51.082;5.066;2023-04-25T12:11:54;5.00;;;2.45;;
65759;SDS011;52496;51.082;5.066;2023-04-25T12:14:29;5.10;;;2.00;;
65759;SDS011;52496;51.082;5.066;2023-04-25T12:17:02;7.15;;;2.38;;
65759;SDS011;52496;51.082;5.066;2023-04-25T12:19:35;5.25;;;2.72;;
65759;SDS011;52496;51.082;5.066;2023-04-25T12:22:20;5.45;;;2.10;;
65759;SDS011;52496;51.082;5.066;2023-04-25T12:24:52;4.78;;;2.08;;
65759;SDS011;52496;51.082;5.066;2023-04-25T12:27:23;6.10;;;2.33;;
65759;SDS011;52496;51.082;5.066;2023-04-25T12:29:57;6.80;;;2.30;;
65759;SDS011;52496;51.082;5.066;2023-04-25T12:32:27;6.90;;;2.72;;
65759;SDS011;52496;51.082;5.066;2023-04-25T12:34:58;7.10;;;2.47;;
65759;SDS011;52496;51.082;5.066;2023-04-25T12:37:28;10.68;;;2.72;;
65759;SDS011;52496;51.082;5.066;2023-04-25T12:39:59;5.72;;;2.53;;
65759;SDS011;52496;51.082;5.066;2023-04-25T12:42:30;10.00;;;2.90;;
65759;SDS011;52496;51.082;5.066;2023-04-25T12:45:01;5.00;;;1.98;;
65759;SDS011;52496;51.082;5.066;2023-04-25T12:47:32;6.10;;;2.05;;
65759;SDS011;52496;51.082;5.066;2023-04-25T12:50:05;6.78;;;2.08;;
65759;SDS011;52496;51.082;5.066;2023-04-25T12:52:36;5.88;;;2.08;;
65759;SDS011;52496;51.082;5.066;2023-04-25T12:55:06;7.43;;;2.65;;
65759;SDS011;52496;51.082;5.066;2023-04-25T12:57:36;6.43;;;1.90;;
65759;SDS011;52496;51.082;5.066;2023-04-25T13:00:07;4.38;;;2.10;;
65759;SDS011;52496;51.082;5.066;2023-04-25T13:02:40;6.20;;;2.10;;
65759;SDS011;52496;51.082;5.066;2023-04-25T13:05:11;7.05;;;2.42;;
65759;SDS011;52496;51.082;5.066;2023-04-25T13:07:41;6.22;;;2.25;;
65759;SDS011;52496;51.082;5.066;2023-04-25T13:10:11;2.97;;;1.80;;
65759;SDS011;52496;51.082;5.066;2023-04-25T13:12:42;6.65;;;1.70;;
65759;SDS011;52496;51.082;5.066;2023-04-25T13:15:12;5.63;;;1.60;;
65759;SDS011;52496;51.082;5.066;2023-04-25T13:17:45;4.95;;;1.95;;
65759;SDS011;52496;51.082;5.066;2023-04-25T13:20:15;5.43;;;1.95;;
65759;SDS011;52496;51.082;5.066;2023-04-25T13:22:48;5.78;;;1.83;;
65759;SDS011;52496;51.082;5.066;2023-04-25T13:25:18;6.35;;;1.90;;
65759;SDS011;52496;51.082;5.066;2023-04-25T13:27:49;4.28;;;1.75;;
65759;SDS011;52496;51.082;5.066;2023-04-25T13:30:20;5.07;;;1.88;;
65759;SDS011;52496;51.082;5.066;2023-04-25T13:32:51;6.78;;;1.95;;
65759;SDS011;52496;51.082;5.066;2023-04-25T13:35:22;5.32;;;2.08;;
65759;SDS011;52496;51.082;5.066;2023-04-25T13:37:53;6.03;;;1.75;;
65759;SDS011;52496;51.082;5.066;2023-04-25T13:40:23;4.43;;;1.73;;
65759;SDS011;52496;51.082;5.066;2023-04-25T13:42:54;4.57;;;1.70;;
65759;SDS011;52496;51.082;5.066;2023-04-25T13:45:25;5.22;;;2.15;;
65759;SDS011;52496;51.082;5.066;2023-04-25T13:47:56;4.57;;;1.95;;
65759;SDS011;52496;51.082;5.066;2023-04-25T13:50:26;4.45;;;1.98;;
65759;SDS011;52496;51.082;5.066;2023-04-25T13:52:57;4.63;;;2.30;;
65759;SDS011;52496;51.082;5.066;2023-04-25T13:55:27;3.45;;;1.75;;
65759;SDS011;52496;51.082;5.066;2023-04-25T13:57:58;4.80;;;1.95;;
65759;SDS011;52496;51.082;5.066;2023-04-25T14:00:29;5.80;;;1.80;;
65759;SDS011;52496;51.082;5.066;2023-04-25T14:02:59;3.55;;;1.73;;
65759;SDS011;52496;51.082;5.066;2023-04-25T14:05:30;5.47;;;2.03;;
65759;SDS011;52496;51.082;5.066;2023-04-25T14:08:01;3.97;;;1.88;;
65759;SDS011;52496;51.082;5.066;2023-04-25T14:10:31;3.10;;;1.58;;
65759;SDS011;52496;51.082;5.066;2023-04-25T14:13:02;8.23;;;1.98;;
65759;SDS011;52496;51.082;5.066;2023-04-25T14:15:35;5.47;;;2.38;;
65759;SDS011;52496;51.082;5.066;2023-04-25T14:18:05;4.10;;;1.80;;
65759;SDS011;52496;51.082;5.066;2023-04-25T14:20:36;4.85;;;2.03;;
65759;SDS011;52496;51.082;5.066;2023-04-25T14:23:07;6.30;;;2.10;;
65759;SDS011;52496;51.082;5.066;2023-04-25T14:25:37;5.28;;;1.60;;
65759;SDS011;52496;51.082;5.066;2023-04-25T14:28:10;6.50;;;2.00;;
65759;SDS011;52496;51.082;5.066;2023-04-25T14:30:40;3.40;;;1.75;;
65759;SDS011;52496;51.082;5.066;2023-04-25T14:33:11;4.45;;;1.95;;
65759;SDS011;52496;51.082;5.066;2023-04-25T14:35:42;7.07;;;2.13;;
65759;SDS011;52496;51.082;5.066;2023-04-25T14:38:12;5.18;;;2.00;;
65759;SDS011;52496;51.082;5.066;2023-04-25T14:40:43;7.55;;;1.90;;
65759;SDS011;52496;51.082;5.066;2023-04-25T14:43:14;7.20;;;1.92;;
65759;SDS011;52496;51.082;5.066;2023-04-25T14:45:44;4.22;;;2.22;;
65759;SDS011;52496;51.082;5.066;2023-04-25T14:48:15;3.50;;;1.50;;
65759;SDS011;52496;51.082;5.066;2023-04-25T14:50:47;5.75;;;2.03;;
65759;SDS011;52496;51.082;5.066;2023-04-25T14:53:18;10.60;;;1.90;;
65759;SDS011;52496;51.082;5.066;2023-04-25T14:55:49;4.97;;;1.85;;
65759;SDS011;52496;51.082;5.066;2023-04-25T14:58:19;3.97;;;1.75;;
65759;SDS011;52496;51.082;5.066;2023-04-25T15:00:50;5.00;;;1.63;;
65759;SDS011;52496;51.082;5.066;2023-04-25T15:03:20;5.90;;;2.08;;
65759;SDS011;52496;51.082;5.066;2023-04-25T15:05:51;6.22;;;2.05;;
65759;SDS011;52496;51.082;5.066;2023-04-25T15:08:22;5.78;;;2.47;;
65759;SDS011;52496;51.082;5.066;2023-04-25T15:10:53;5.97;;;2.00;;
65759;SDS011;52496;51.082;5.066;2023-04-25T15:13:23;5.97;;;2.45;;